sensor_id;sensor_type;location;lat;lon;timestamp;temperature;humidity
13049;DHT22;6591;51.446;5.404;2022-09-11T00:01:15;15.60;99.90
13049;DHT22;6591;51.446;5.404;2022-09-11T00:03:44;15.60;99.90
13049;DHT22;6591;51.446;5.404;2022-09-11T00:06:15;16.40;99.90
13049;DHT22;6591;51.446;5.404;2022-09-11T00:09:00;16.60;99.90
13049;DHT22;6591;51.446;5.404;2022-09-11T00:11:39;15.60;99.90
13049;DHT22;6591;51.446;5.404;2022-09-11T00:14:11;16.70;99.90
13049;DHT22;6591;51.446;5.404;2022-09-11T00:16:42;17.30;99.90
13049;DHT22;6591;51.446;5.404;2022-09-11T00:19:14;15.60;99.90
13049;DHT22;6591;51.446;5.404;2022-09-11T00:21:46;15.80;99.90
13049;DHT22;6591;51.446;5.404;2022-09-11T00:24:15;15.60;99.90
13049;DHT22;6591;51.446;5.404;2022-09-11T00:26:42;15.40;99.90
13049;DHT22;6591;51.446;5.404;2022-09-11T00:29:13;16.10;99.90
13049;DHT22;6591;51.446;5.404;2022-09-11T00:31:40;17.70;99.90
13049;DHT22;6591;51.446;5.404;2022-09-11T00:34:08;15.50;99.90
13049;DHT22;6591;51.446;5.404;2022-09-11T00:36:37;15.40;99.90
13049;DHT22;6591;51.446;5.404;2022-09-11T00:39:08;15.40;99.90
13049;DHT22;6591;51.446;5.404;2022-09-11T00:41:39;15.30;99.90
13049;DHT22;6591;51.446;5.404;2022-09-11T00:46:47;13.10;99.90
13049;DHT22;6591;51.446;5.404;2022-09-11T00:49:29;15.20;99.90
13049;DHT22;6591;51.446;5.404;2022-09-11T00:52:17;15.10;99.90
13049;DHT22;6591;51.446;5.404;2022-09-11T00:54:52;15.70;99.90
13049;DHT22;6591;51.446;5.404;2022-09-11T00:57:27;15.10;99.90
13049;DHT22;6591;51.446;5.404;2022-09-11T01:00:00;15.10;99.90
13049;DHT22;6591;51.446;5.404;2022-09-11T01:02:33;15.10;99.90
13049;DHT22;6591;51.446;5.404;2022-09-11T01:05:03;15.10;99.90
13049;DHT22;6591;51.446;5.404;2022-09-11T01:07:33;15.10;99.90
13049;DHT22;6591;51.446;5.404;2022-09-11T01:10:05;15.10;99.90
13049;DHT22;6591;51.446;5.404;2022-09-11T01:18:59;15.00;99.90
13049;DHT22;6591;51.446;5.404;2022-09-11T01:24:55;15.10;99.90
13049;DHT22;6591;51.446;5.404;2022-09-11T01:27:38;15.00;99.90
13049;DHT22;6591;51.446;5.404;2022-09-11T01:30:20;15.10;99.90
13049;DHT22;6591;51.446;5.404;2022-09-11T01:35:52;15.20;99.90
13049;DHT22;6591;51.446;5.404;2022-09-11T01:41:42;15.10;99.90
13049;DHT22;6591;51.446;5.404;2022-09-11T01:44:23;15.10;99.90
13049;DHT22;6591;51.446;5.404;2022-09-11T01:46:55;17.60;99.90
13049;DHT22;6591;51.446;5.404;2022-09-11T01:49:38;15.90;99.90
13049;DHT22;6591;51.446;5.404;2022-09-11T01:52:27;15.10;99.90
13049;DHT22;6591;51.446;5.404;2022-09-11T01:55:04;15.00;99.90
13049;DHT22;6591;51.446;5.404;2022-09-11T01:57:50;15.20;99.90
13049;DHT22;6591;51.446;5.404;2022-09-11T02:00:22;14.90;99.90
13049;DHT22;6591;51.446;5.404;2022-09-11T02:03:14;14.80;99.90
13049;DHT22;6591;51.446;5.404;2022-09-11T02:05:59;16.10;99.90
13049;DHT22;6591;51.446;5.404;2022-09-11T02:08:57;14.80;99.90
13049;DHT22;6591;51.446;5.404;2022-09-11T02:11:32;14.70;99.90
13049;DHT22;6591;51.446;5.404;2022-09-11T02:14:18;13.40;99.90
13049;DHT22;6591;51.446;5.404;2022-09-11T02:19:35;14.60;99.90
13049;DHT22;6591;51.446;5.404;2022-09-11T02:22:05;14.80;99.90
13049;DHT22;6591;51.446;5.404;2022-09-11T02:24:36;14.60;99.90
13049;DHT22;6591;51.446;5.404;2022-09-11T02:27:07;14.60;99.90
13049;DHT22;6591;51.446;5.404;2022-09-11T02:29:37;14.60;99.90
13049;DHT22;6591;51.446;5.404;2022-09-11T02:32:05;16.70;99.90
13049;DHT22;6591;51.446;5.404;2022-09-11T02:34:37;14.60;99.90
13049;DHT22;6591;51.446;5.404;2022-09-11T02:43:36;14.60;99.90
13049;DHT22;6591;51.446;5.404;2022-09-11T02:55:23;14.60;99.90
13049;DHT22;6591;51.446;5.404;2022-09-11T03:01:01;14.50;99.90
13049;DHT22;6591;51.446;5.404;2022-09-11T03:03:40;14.60;99.90
13049;DHT22;6591;51.446;5.404;2022-09-11T03:06:15;14.60;99.90
13049;DHT22;6591;51.446;5.404;2022-09-11T03:08:46;14.50;99.90
13049;DHT22;6591;51.446;5.404;2022-09-11T03:11:14;16.00;99.90
13049;DHT22;6591;51.446;5.404;2022-09-11T03:13:45;14.50;99.90
13049;DHT22;6591;51.446;5.404;2022-09-11T03:16:14;15.90;99.90
13049;DHT22;6591;51.446;5.404;2022-09-11T03:18:43;16.50;99.90
13049;DHT22;6591;51.446;5.404;2022-09-11T03:21:10;15.50;99.90
13049;DHT22;6591;51.446;5.404;2022-09-11T03:23:40;16.50;99.90
13049;DHT22;6591;51.446;5.404;2022-09-11T03:26:07;14.50;99.90
13049;DHT22;6591;51.446;5.404;2022-09-11T03:28:35;14.40;99.90
13049;DHT22;6591;51.446;5.404;2022-09-11T03:31:05;16.30;99.90
13049;DHT22;6591;51.446;5.404;2022-09-11T03:33:36;15.80;99.90
13049;DHT22;6591;51.446;5.404;2022-09-11T03:36:03;14.50;99.90
13049;DHT22;6591;51.446;5.404;2022-09-11T03:38:31;14.50;99.90
13049;DHT22;6591;51.446;5.404;2022-09-11T03:40:59;14.50;99.90
13049;DHT22;6591;51.446;5.404;2022-09-11T03:43:30;14.50;99.90
13049;DHT22;6591;51.446;5.404;2022-09-11T03:46:00;13.80;99.90
13049;DHT22;6591;51.446;5.404;2022-09-11T03:48:33;14.50;99.90
13049;DHT22;6591;51.446;5.404;2022-09-11T03:51:01;14.50;99.90
13049;DHT22;6591;51.446;5.404;2022-09-11T03:53:31;16.30;99.90
13049;DHT22;6591;51.446;5.404;2022-09-11T03:55:59;14.50;99.90
13049;DHT22;6591;51.446;5.404;2022-09-11T03:58:32;14.50;99.90
13049;DHT22;6591;51.446;5.404;2022-09-11T04:01:07;14.50;99.90
13049;DHT22;6591;51.446;5.404;2022-09-11T04:03:39;14.50;99.90
13049;DHT22;6591;51.446;5.404;2022-09-11T04:06:11;14.50;99.90
13049;DHT22;6591;51.446;5.404;2022-09-11T04:08:40;14.50;99.90
13049;DHT22;6591;51.446;5.404;2022-09-11T04:11:10;14.50;99.90
13049;DHT22;6591;51.446;5.404;2022-09-11T04:13:40;13.10;99.90
13049;DHT22;6591;51.446;5.404;2022-09-11T04:16:16;16.20;99.90
13049;DHT22;6591;51.446;5.404;2022-09-11T04:18:49;14.40;99.90
13049;DHT22;6591;51.446;5.404;2022-09-11T04:21:19;14.50;99.90
13049;DHT22;6591;51.446;5.404;2022-09-11T04:23:53;15.80;99.90
13049;DHT22;6591;51.446;5.404;2022-09-11T04:26:30;14.50;99.90
13049;DHT22;6591;51.446;5.404;2022-09-11T04:29:10;16.20;99.90
13049;DHT22;6591;51.446;5.404;2022-09-11T04:31:38;15.70;99.90
13049;DHT22;6591;51.446;5.404;2022-09-11T04:34:08;15.70;99.90
13049;DHT22;6591;51.446;5.404;2022-09-11T04:36:36;16.40;99.90
13049;DHT22;6591;51.446;5.404;2022-09-11T04:39:04;16.60;99.90
13049;DHT22;6591;51.446;5.404;2022-09-11T04:41:36;16.50;99.90
13049;DHT22;6591;51.446;5.404;2022-09-11T04:44:03;14.60;99.90
13049;DHT22;6591;51.446;5.404;2022-09-11T04:46:36;15.00;99.90
13049;DHT22;6591;51.446;5.404;2022-09-11T04:49:08;13.50;99.90
13049;DHT22;6591;51.446;5.404;2022-09-11T04:51:38;15.90;99.90
13049;DHT22;6591;51.446;5.404;2022-09-11T04:54:12;16.70;99.90
13049;DHT22;6591;51.446;5.404;2022-09-11T04:56:44;14.60;99.90
13049;DHT22;6591;51.446;5.404;2022-09-11T04:59:17;14.60;99.90
13049;DHT22;6591;51.446;5.404;2022-09-11T05:01:55;16.10;99.90
13049;DHT22;6591;51.446;5.404;2022-09-11T05:04:22;15.40;99.90
13049;DHT22;6591;51.446;5.404;2022-09-11T05:06:53;14.50;99.90
13049;DHT22;6591;51.446;5.404;2022-09-11T05:09:20;16.40;99.90
13049;DHT22;6591;51.446;5.404;2022-09-11T05:11:48;14.60;99.90
13049;DHT22;6591;51.446;5.404;2022-09-11T05:14:16;16.30;99.90
13049;DHT22;6591;51.446;5.404;2022-09-11T05:16:46;16.00;99.90
13049;DHT22;6591;51.446;5.404;2022-09-11T05:19:15;15.30;99.90
13049;DHT22;6591;51.446;5.404;2022-09-11T05:21:44;14.60;99.90
13049;DHT22;6591;51.446;5.404;2022-09-11T05:24:11;14.60;99.90
13049;DHT22;6591;51.446;5.404;2022-09-11T05:26:39;15.60;99.90
13049;DHT22;6591;51.446;5.404;2022-09-11T05:29:11;14.50;99.90
13049;DHT22;6591;51.446;5.404;2022-09-11T05:31:57;14.60;99.90
13049;DHT22;6591;51.446;5.404;2022-09-11T05:34:25;13.40;99.90
13049;DHT22;6591;51.446;5.404;2022-09-11T05:38:07;15.50;99.90
13049;DHT22;6591;51.446;5.404;2022-09-11T05:40:42;14.50;99.90
13049;DHT22;6591;51.446;5.404;2022-09-11T05:43:20;15.60;99.90
13049;DHT22;6591;51.446;5.404;2022-09-11T05:45:56;14.40;99.90
13049;DHT22;6591;51.446;5.404;2022-09-11T05:48:32;14.50;99.90
13049;DHT22;6591;51.446;5.404;2022-09-11T05:51:05;14.40;99.90
13049;DHT22;6591;51.446;5.404;2022-09-11T05:53:36;14.50;99.90
13049;DHT22;6591;51.446;5.404;2022-09-11T05:56:16;14.50;99.90
13049;DHT22;6591;51.446;5.404;2022-09-11T05:58:46;14.50;99.90
13049;DHT22;6591;51.446;5.404;2022-09-11T06:01:17;15.60;99.90
13049;DHT22;6591;51.446;5.404;2022-09-11T06:03:53;14.70;99.90
13049;DHT22;6591;51.446;5.404;2022-09-11T06:06:24;14.60;99.90
13049;DHT22;6591;51.446;5.404;2022-09-11T06:08:52;17.20;99.90
13049;DHT22;6591;51.446;5.404;2022-09-11T06:11:20;15.20;99.90
13049;DHT22;6591;51.446;5.404;2022-09-11T06:13:49;14.70;99.90
13049;DHT22;6591;51.446;5.404;2022-09-11T06:16:20;14.80;99.90
13049;DHT22;6591;51.446;5.404;2022-09-11T06:18:50;14.80;99.90
13049;DHT22;6591;51.446;5.404;2022-09-11T06:21:21;14.90;99.90
13049;DHT22;6591;51.446;5.404;2022-09-11T06:23:58;14.90;99.90
13049;DHT22;6591;51.446;5.404;2022-09-11T06:26:29;15.00;99.90
13049;DHT22;6591;51.446;5.404;2022-09-11T06:28:56;15.00;99.90
13049;DHT22;6591;51.446;5.404;2022-09-11T06:31:25;15.10;99.90
13049;DHT22;6591;51.446;5.404;2022-09-11T06:33:54;15.20;99.90
13049;DHT22;6591;51.446;5.404;2022-09-11T06:36:25;16.60;99.90
13049;DHT22;6591;51.446;5.404;2022-09-11T06:38:56;15.30;99.90
13049;DHT22;6591;51.446;5.404;2022-09-11T06:41:27;15.40;99.90
13049;DHT22;6591;51.446;5.404;2022-09-11T06:44:05;15.40;99.90
13049;DHT22;6591;51.446;5.404;2022-09-11T06:46:39;15.50;99.90
13049;DHT22;6591;51.446;5.404;2022-09-11T06:49:08;15.60;99.90
13049;DHT22;6591;51.446;5.404;2022-09-11T06:51:55;15.70;99.90
13049;DHT22;6591;51.446;5.404;2022-09-11T06:54:22;15.80;99.90
13049;DHT22;6591;51.446;5.404;2022-09-11T06:56:51;15.80;99.90
13049;DHT22;6591;51.446;5.404;2022-09-11T06:59:18;15.90;99.90
13049;DHT22;6591;51.446;5.404;2022-09-11T07:01:49;16.10;99.90
13049;DHT22;6591;51.446;5.404;2022-09-11T07:04:17;16.20;99.90
13049;DHT22;6591;51.446;5.404;2022-09-11T07:06:47;18.10;99.90
13049;DHT22;6591;51.446;5.404;2022-09-11T07:09:16;16.40;99.90
13049;DHT22;6591;51.446;5.404;2022-09-11T07:11:49;17.50;99.90
13049;DHT22;6591;51.446;5.404;2022-09-11T07:14:19;18.30;99.90
13049;DHT22;6591;51.446;5.404;2022-09-11T07:16:50;16.60;99.90
13049;DHT22;6591;51.446;5.404;2022-09-11T07:19:21;16.70;99.90
13049;DHT22;6591;51.446;5.404;2022-09-11T07:21:51;16.90;99.90
13049;DHT22;6591;51.446;5.404;2022-09-11T07:24:19;18.50;99.90
13049;DHT22;6591;51.446;5.404;2022-09-11T07:26:47;17.10;99.90
13049;DHT22;6591;51.446;5.404;2022-09-11T07:29:24;17.10;99.90
13049;DHT22;6591;51.446;5.404;2022-09-11T07:31:52;17.30;99.90
13049;DHT22;6591;51.446;5.404;2022-09-11T07:34:23;20.10;99.90
13049;DHT22;6591;51.446;5.404;2022-09-11T07:36:50;17.40;99.90
13049;DHT22;6591;51.446;5.404;2022-09-11T07:39:18;18.60;99.90
13049;DHT22;6591;51.446;5.404;2022-09-11T07:41:52;17.70;99.90
13049;DHT22;6591;51.446;5.404;2022-09-11T07:44:24;19.90;99.90
13049;DHT22;6591;51.446;5.404;2022-09-11T07:46:51;18.00;99.90
13049;DHT22;6591;51.446;5.404;2022-09-11T07:49:19;20.30;99.90
13049;DHT22;6591;51.446;5.404;2022-09-11T07:51:47;20.60;99.90
13049;DHT22;6591;51.446;5.404;2022-09-11T07:54:21;18.50;99.90
13049;DHT22;6591;51.446;5.404;2022-09-11T07:56:48;18.70;99.90
13049;DHT22;6591;51.446;5.404;2022-09-11T07:59:15;18.90;99.90
13049;DHT22;6591;51.446;5.404;2022-09-11T08:01:46;19.00;99.90
13049;DHT22;6591;51.446;5.404;2022-09-11T08:04:15;19.10;99.90
13049;DHT22;6591;51.446;5.404;2022-09-11T08:06:43;20.40;99.90
13049;DHT22;6591;51.446;5.404;2022-09-11T08:09:17;19.40;99.90
13049;DHT22;6591;51.446;5.404;2022-09-11T08:11:52;21.00;99.90
13049;DHT22;6591;51.446;5.404;2022-09-11T08:14:25;19.80;99.90
13049;DHT22;6591;51.446;5.404;2022-09-11T08:16:59;20.00;99.90
13049;DHT22;6591;51.446;5.404;2022-09-11T08:19:29;20.30;99.90
13049;DHT22;6591;51.446;5.404;2022-09-11T08:22:00;20.40;99.90
13049;DHT22;6591;51.446;5.404;2022-09-11T08:24:32;20.60;99.90
13049;DHT22;6591;51.446;5.404;2022-09-11T08:27:03;20.80;99.90
13049;DHT22;6591;51.446;5.404;2022-09-11T08:29:35;21.10;99.90
13049;DHT22;6591;51.446;5.404;2022-09-11T08:32:03;21.30;99.90
13049;DHT22;6591;51.446;5.404;2022-09-11T08:34:31;21.40;99.90
13049;DHT22;6591;51.446;5.404;2022-09-11T08:36:59;21.60;99.90
13049;DHT22;6591;51.446;5.404;2022-09-11T08:39:28;21.70;99.90
13049;DHT22;6591;51.446;5.404;2022-09-11T08:42:11;23.20;99.90
13049;DHT22;6591;51.446;5.404;2022-09-11T08:44:50;22.00;99.90
13049;DHT22;6591;51.446;5.404;2022-09-11T08:47:49;22.10;99.90
13049;DHT22;6591;51.446;5.404;2022-09-11T08:50:39;22.40;99.90
13049;DHT22;6591;51.446;5.404;2022-09-11T08:53:14;22.50;99.90
13049;DHT22;6591;51.446;5.404;2022-09-11T08:55:49;23.80;99.90
13049;DHT22;6591;51.446;5.404;2022-09-11T09:04:00;23.20;99.90
13049;DHT22;6591;51.446;5.404;2022-09-11T09:09:57;23.50;99.90
13049;DHT22;6591;51.446;5.404;2022-09-11T09:16:12;23.80;99.90
13049;DHT22;6591;51.446;5.404;2022-09-11T09:18:49;24.00;99.90
13049;DHT22;6591;51.446;5.404;2022-09-11T09:21:28;24.10;99.90
13049;DHT22;6591;51.446;5.404;2022-09-11T09:24:18;25.00;99.90
13049;DHT22;6591;51.446;5.404;2022-09-11T09:26:54;24.60;99.90
13049;DHT22;6591;51.446;5.404;2022-09-11T09:29:28;25.70;99.90
13049;DHT22;6591;51.446;5.404;2022-09-11T09:32:06;25.10;99.90
13049;DHT22;6591;51.446;5.404;2022-09-11T09:34:40;25.50;99.90
13049;DHT22;6591;51.446;5.404;2022-09-11T09:37:22;27.20;99.90
13049;DHT22;6591;51.446;5.404;2022-09-11T09:39:52;27.50;99.90
13049;DHT22;6591;51.446;5.404;2022-09-11T09:45:37;26.70;99.90
13049;DHT22;6591;51.446;5.404;2022-09-11T09:48:10;27.10;99.90
13049;DHT22;6591;51.446;5.404;2022-09-11T09:50:39;27.50;99.90
13049;DHT22;6591;51.446;5.404;2022-09-11T09:55:53;28.20;99.90
13049;DHT22;6591;51.446;5.404;2022-09-11T09:58:24;28.50;99.90
13049;DHT22;6591;51.446;5.404;2022-09-11T10:00:57;28.70;99.90
13049;DHT22;6591;51.446;5.404;2022-09-11T10:03:25;28.90;99.90
13049;DHT22;6591;51.446;5.404;2022-09-11T10:05:54;29.20;99.90
13049;DHT22;6591;51.446;5.404;2022-09-11T10:08:35;29.40;99.90
13049;DHT22;6591;51.446;5.404;2022-09-11T10:11:05;29.60;99.90
13049;DHT22;6591;51.446;5.404;2022-09-11T10:13:40;29.80;99.90
13049;DHT22;6591;51.446;5.404;2022-09-11T10:16:21;30.20;99.90
13049;DHT22;6591;51.446;5.404;2022-09-11T10:18:51;31.00;99.90
13049;DHT22;6591;51.446;5.404;2022-09-11T10:21:27;30.30;99.90
13049;DHT22;6591;51.446;5.404;2022-09-11T10:24:00;30.30;99.90
13049;DHT22;6591;51.446;5.404;2022-09-11T10:26:49;30.10;99.90
13049;DHT22;6591;51.446;5.404;2022-09-11T10:29:24;30.00;99.90
13049;DHT22;6591;51.446;5.404;2022-09-11T10:31:57;29.80;99.90
13049;DHT22;6591;51.446;5.404;2022-09-11T10:34:35;29.60;99.90
13049;DHT22;6591;51.446;5.404;2022-09-11T10:40:07;29.20;99.90
13049;DHT22;6591;51.446;5.404;2022-09-11T10:42:46;29.00;99.90
13049;DHT22;6591;51.446;5.404;2022-09-11T10:45:17;28.80;99.90
13049;DHT22;6591;51.446;5.404;2022-09-11T10:47:48;28.60;99.90
13049;DHT22;6591;51.446;5.404;2022-09-11T10:50:25;28.50;99.90
13049;DHT22;6591;51.446;5.404;2022-09-11T10:55:51;28.10;99.90
13049;DHT22;6591;51.446;5.404;2022-09-11T10:58:32;30.20;99.90
13049;DHT22;6591;51.446;5.404;2022-09-11T11:01:04;28.00;99.90
13049;DHT22;6591;51.446;5.404;2022-09-11T11:03:31;28.20;99.90
13049;DHT22;6591;51.446;5.404;2022-09-11T11:06:25;28.20;99.90
13049;DHT22;6591;51.446;5.404;2022-09-11T11:12:09;28.90;99.90
13049;DHT22;6591;51.446;5.404;2022-09-11T11:17:44;30.30;99.90
13049;DHT22;6591;51.446;5.404;2022-09-11T11:23:44;30.40;99.90
13049;DHT22;6591;51.446;5.404;2022-09-11T11:35:56;30.50;94.50
13049;DHT22;6591;51.446;5.404;2022-09-11T11:38:49;30.30;95.50
13049;DHT22;6591;51.446;5.404;2022-09-11T11:41:32;30.00;94.10
13049;DHT22;6591;51.446;5.404;2022-09-11T11:44:15;29.70;94.30
13049;DHT22;6591;51.446;5.404;2022-09-11T11:46:49;29.40;94.00
13049;DHT22;6591;51.446;5.404;2022-09-11T11:49:22;29.10;93.90
13049;DHT22;6591;51.446;5.404;2022-09-11T11:55:47;28.30;93.30
13049;DHT22;6591;51.446;5.404;2022-09-11T11:58:50;27.70;91.80
13049;DHT22;6591;51.446;5.404;2022-09-11T12:07:03;26.50;95.30
13049;DHT22;6591;51.446;5.404;2022-09-11T12:09:37;26.30;97.00
13049;DHT22;6591;51.446;5.404;2022-09-11T12:12:06;28.70;98.50
13049;DHT22;6591;51.446;5.404;2022-09-11T12:14:33;26.00;98.10
13049;DHT22;6591;51.446;5.404;2022-09-11T12:17:24;26.00;98.30
13049;DHT22;6591;51.446;5.404;2022-09-11T12:22:37;26.20;98.20
13049;DHT22;6591;51.446;5.404;2022-09-11T12:32:50;27.40;99.10
13049;DHT22;6591;51.446;5.404;2022-09-11T12:35:24;26.40;98.10
13049;DHT22;6591;51.446;5.404;2022-09-11T12:43:27;29.10;97.60
13049;DHT22;6591;51.446;5.404;2022-09-11T12:48:54;29.80;97.80
13049;DHT22;6591;51.446;5.404;2022-09-11T12:51:51;30.30;97.00
13049;DHT22;6591;51.446;5.404;2022-09-11T12:54:40;30.70;95.10
13049;DHT22;6591;51.446;5.404;2022-09-11T12:57:30;31.00;93.30
13049;DHT22;6591;51.446;5.404;2022-09-11T13:00:06;31.20;93.20
13049;DHT22;6591;51.446;5.404;2022-09-11T13:02:55;31.30;93.40
13049;DHT22;6591;51.446;5.404;2022-09-11T13:05:30;31.30;93.60
13049;DHT22;6591;51.446;5.404;2022-09-11T13:08:15;31.30;92.80
13049;DHT22;6591;51.446;5.404;2022-09-11T13:10:44;31.40;93.00
13049;DHT22;6591;51.446;5.404;2022-09-11T13:13:40;31.50;93.90
13049;DHT22;6591;51.446;5.404;2022-09-11T13:16:23;31.70;91.50
13049;DHT22;6591;51.446;5.404;2022-09-11T13:19:16;31.80;91.00
13049;DHT22;6591;51.446;5.404;2022-09-11T13:21:46;32.00;91.90
13049;DHT22;6591;51.446;5.404;2022-09-11T13:24:34;32.20;92.30
13049;DHT22;6591;51.446;5.404;2022-09-11T13:27:11;32.30;89.00
13049;DHT22;6591;51.446;5.404;2022-09-11T13:29:42;32.40;91.60
13049;DHT22;6591;51.446;5.404;2022-09-11T13:32:15;32.40;92.60
13049;DHT22;6591;51.446;5.404;2022-09-11T13:34:48;32.50;92.20
13049;DHT22;6591;51.446;5.404;2022-09-11T13:37:32;32.70;92.30
13049;DHT22;6591;51.446;5.404;2022-09-11T13:40:10;32.90;90.70
13049;DHT22;6591;51.446;5.404;2022-09-11T13:42:45;33.00;92.40
13049;DHT22;6591;51.446;5.404;2022-09-11T13:45:18;33.10;91.90
13049;DHT22;6591;51.446;5.404;2022-09-11T13:47:48;33.30;91.40
13049;DHT22;6591;51.446;5.404;2022-09-11T13:50:17;33.40;91.80
13049;DHT22;6591;51.446;5.404;2022-09-11T13:52:47;33.50;90.30
13049;DHT22;6591;51.446;5.404;2022-09-11T13:55:16;33.60;90.10
13049;DHT22;6591;51.446;5.404;2022-09-11T13:57:54;33.70;88.00
13049;DHT22;6591;51.446;5.404;2022-09-11T14:00:40;33.60;87.30
13049;DHT22;6591;51.446;5.404;2022-09-11T14:03:20;33.50;86.70
13049;DHT22;6591;51.446;5.404;2022-09-11T14:05:56;33.60;87.80
13049;DHT22;6591;51.446;5.404;2022-09-11T14:11:06;33.70;86.50
13049;DHT22;6591;51.446;5.404;2022-09-11T14:16:32;33.90;80.00
13049;DHT22;6591;51.446;5.404;2022-09-11T14:21:46;33.70;82.40
13049;DHT22;6591;51.446;5.404;2022-09-11T14:24:34;33.80;84.80
13049;DHT22;6591;51.446;5.404;2022-09-11T14:27:32;33.70;78.90
13049;DHT22;6591;51.446;5.404;2022-09-11T14:29:56;33.80;83.60
13049;DHT22;6591;51.446;5.404;2022-09-11T14:32:31;33.90;82.60
13049;DHT22;6591;51.446;5.404;2022-09-11T14:35:04;33.90;77.90
13049;DHT22;6591;51.446;5.404;2022-09-11T14:37:38;33.90;80.90
13049;DHT22;6591;51.446;5.404;2022-09-11T14:40:17;33.70;80.40
13049;DHT22;6591;51.446;5.404;2022-09-11T14:42:45;33.60;78.30
13049;DHT22;6591;51.446;5.404;2022-09-11T14:45:20;33.50;80.20
13049;DHT22;6591;51.446;5.404;2022-09-11T14:47:50;33.40;79.30
13049;DHT22;6591;51.446;5.404;2022-09-11T14:50:18;32.80;80.20
13049;DHT22;6591;51.446;5.404;2022-09-11T14:52:45;33.30;81.90
13049;DHT22;6591;51.446;5.404;2022-09-11T14:55:16;33.20;81.90
13049;DHT22;6591;51.446;5.404;2022-09-11T14:57:45;33.30;80.10
13049;DHT22;6591;51.446;5.404;2022-09-11T15:00:17;33.30;79.80
13049;DHT22;6591;51.446;5.404;2022-09-11T15:02:46;33.30;80.30
13049;DHT22;6591;51.446;5.404;2022-09-11T15:05:16;33.20;79.30
13049;DHT22;6591;51.446;5.404;2022-09-11T15:07:44;33.00;79.70
13049;DHT22;6591;51.446;5.404;2022-09-11T15:10:12;32.90;79.40
13049;DHT22;6591;51.446;5.404;2022-09-11T15:12:40;34.50;80.50
13049;DHT22;6591;51.446;5.404;2022-09-11T15:15:09;33.60;79.90
13049;DHT22;6591;51.446;5.404;2022-09-11T15:17:36;32.10;79.10
13049;DHT22;6591;51.446;5.404;2022-09-11T15:20:04;31.90;79.70
13049;DHT22;6591;51.446;5.404;2022-09-11T15:22:35;31.70;80.50
13049;DHT22;6591;51.446;5.404;2022-09-11T15:25:04;31.60;80.30
13049;DHT22;6591;51.446;5.404;2022-09-11T15:27:34;31.50;81.10
13049;DHT22;6591;51.446;5.404;2022-09-11T15:30:01;31.60;81.10
13049;DHT22;6591;51.446;5.404;2022-09-11T15:32:28;31.50;81.20
13049;DHT22;6591;51.446;5.404;2022-09-11T15:34:57;32.20;82.60
13049;DHT22;6591;51.446;5.404;2022-09-11T15:37:25;31.80;82.60
13049;DHT22;6591;51.446;5.404;2022-09-11T15:39:52;31.90;82.30
13049;DHT22;6591;51.446;5.404;2022-09-11T15:42:19;32.00;81.50
13049;DHT22;6591;51.446;5.404;2022-09-11T15:44:46;32.10;81.30
13049;DHT22;6591;51.446;5.404;2022-09-11T15:47:14;32.20;80.30
13049;DHT22;6591;51.446;5.404;2022-09-11T15:49:42;32.30;80.00
13049;DHT22;6591;51.446;5.404;2022-09-11T15:52:15;32.40;80.60
13049;DHT22;6591;51.446;5.404;2022-09-11T15:54:42;32.70;81.90
13049;DHT22;6591;51.446;5.404;2022-09-11T15:57:11;32.50;80.80
13049;DHT22;6591;51.446;5.404;2022-09-11T15:59:38;32.60;78.30
13049;DHT22;6591;51.446;5.404;2022-09-11T16:02:06;32.70;78.80
13049;DHT22;6591;51.446;5.404;2022-09-11T16:04:34;32.70;79.20
13049;DHT22;6591;51.446;5.404;2022-09-11T16:07:01;32.70;77.70
13049;DHT22;6591;51.446;5.404;2022-09-11T16:09:30;32.80;76.90
13049;DHT22;6591;51.446;5.404;2022-09-11T16:11:59;32.70;76.20
13049;DHT22;6591;51.446;5.404;2022-09-11T16:14:29;32.70;75.80
13049;DHT22;6591;51.446;5.404;2022-09-11T16:17:00;32.90;74.60
13049;DHT22;6591;51.446;5.404;2022-09-11T16:19:28;32.40;74.20
13049;DHT22;6591;51.446;5.404;2022-09-11T16:21:57;32.30;73.80
13049;DHT22;6591;51.446;5.404;2022-09-11T16:24:28;32.00;74.00
13049;DHT22;6591;51.446;5.404;2022-09-11T16:26:57;31.80;74.70
13049;DHT22;6591;51.446;5.404;2022-09-11T16:29:26;32.90;76.10
13049;DHT22;6591;51.446;5.404;2022-09-11T16:32:15;32.60;76.50
13049;DHT22;6591;51.446;5.404;2022-09-11T16:34:55;31.20;76.30
13049;DHT22;6591;51.446;5.404;2022-09-11T16:37:24;31.10;77.30
13049;DHT22;6591;51.446;5.404;2022-09-11T16:39:52;31.10;78.60
13049;DHT22;6591;51.446;5.404;2022-09-11T16:42:20;30.90;79.00
13049;DHT22;6591;51.446;5.404;2022-09-11T16:44:48;31.00;80.00
13049;DHT22;6591;51.446;5.404;2022-09-11T16:47:15;31.00;79.80
13049;DHT22;6591;51.446;5.404;2022-09-11T16:49:43;31.10;80.20
13049;DHT22;6591;51.446;5.404;2022-09-11T16:52:31;31.20;80.30
13049;DHT22;6591;51.446;5.404;2022-09-11T16:55:00;31.50;80.50
13049;DHT22;6591;51.446;5.404;2022-09-11T16:57:27;31.30;80.00
13049;DHT22;6591;51.446;5.404;2022-09-11T16:59:55;31.30;79.90
13049;DHT22;6591;51.446;5.404;2022-09-11T17:02:22;31.20;79.00
13049;DHT22;6591;51.446;5.404;2022-09-11T17:04:49;31.10;78.50
13049;DHT22;6591;51.446;5.404;2022-09-11T17:07:16;30.90;78.10
13049;DHT22;6591;51.446;5.404;2022-09-11T17:09:45;30.80;77.60
13049;DHT22;6591;51.446;5.404;2022-09-11T17:12:12;30.70;77.40
13049;DHT22;6591;51.446;5.404;2022-09-11T17:14:39;30.50;77.50
13049;DHT22;6591;51.446;5.404;2022-09-11T17:17:06;30.40;77.40
13049;DHT22;6591;51.446;5.404;2022-09-11T17:19:34;30.10;76.90
13049;DHT22;6591;51.446;5.404;2022-09-11T17:22:01;29.80;76.30
13049;DHT22;6591;51.446;5.404;2022-09-11T17:24:29;30.20;77.10
13049;DHT22;6591;51.446;5.404;2022-09-11T17:27:00;32.00;78.90
13049;DHT22;6591;51.446;5.404;2022-09-11T17:29:27;28.90;77.10
13049;DHT22;6591;51.446;5.404;2022-09-11T17:31:54;29.50;77.90
13049;DHT22;6591;51.446;5.404;2022-09-11T17:34:41;29.80;78.50
13049;DHT22;6591;51.446;5.404;2022-09-11T17:37:08;30.40;79.70
13049;DHT22;6591;51.446;5.404;2022-09-11T17:39:35;30.10;79.80
13049;DHT22;6591;51.446;5.404;2022-09-11T17:42:03;27.10;78.10
13049;DHT22;6591;51.446;5.404;2022-09-11T17:44:38;26.90;79.20
13049;DHT22;6591;51.446;5.404;2022-09-11T17:47:06;27.20;80.00
13049;DHT22;6591;51.446;5.404;2022-09-11T17:49:34;26.20;80.00
13049;DHT22;6591;51.446;5.404;2022-09-11T17:52:01;25.90;80.40
13049;DHT22;6591;51.446;5.404;2022-09-11T17:54:28;24.50;80.90
13049;DHT22;6591;51.446;5.404;2022-09-11T17:56:55;26.80;83.00
13049;DHT22;6591;51.446;5.404;2022-09-11T17:59:26;25.80;83.40
13049;DHT22;6591;51.446;5.404;2022-09-11T18:01:53;24.80;83.80
13049;DHT22;6591;51.446;5.404;2022-09-11T18:04:20;25.20;84.80
13049;DHT22;6591;51.446;5.404;2022-09-11T18:06:48;26.60;86.10
13049;DHT22;6591;51.446;5.404;2022-09-11T18:09:16;24.00;84.60
13049;DHT22;6591;51.446;5.404;2022-09-11T18:11:48;23.70;85.60
13049;DHT22;6591;51.446;5.404;2022-09-11T18:14:17;23.50;86.30
13049;DHT22;6591;51.446;5.404;2022-09-11T18:16:46;24.10;87.10
13049;DHT22;6591;51.446;5.404;2022-09-11T18:19:17;23.00;87.20
13049;DHT22;6591;51.446;5.404;2022-09-11T18:21:48;22.80;88.10